createdAt,value
2023-02-02T00:02:47.889Z,0
2023-02-02T00:07:47.912Z,0
2023-02-02T00:12:47.876Z,0
2023-02-02T00:17:47.855Z,0
2023-02-02T00:22:47.883Z,0
2023-02-02T00:27:47.882Z,0
2023-02-02T00:32:47.851Z,0
2023-02-02T00:37:47.883Z,0
2023-02-02T00:42:47.814Z,0
2023-02-02T00:47:47.858Z,0
2023-02-02T00:52:47.865Z,0
2023-02-02T00:57:47.861Z,0
2023-02-02T01:02:47.860Z,0
2023-02-02T01:07:47.840Z,0
2023-02-02T01:12:47.831Z,0
2023-02-02T01:17:47.821Z,0
2023-02-02T01:22:47.841Z,0
2023-02-02T01:27:47.847Z,0
2023-02-02T01:32:47.798Z,0
2023-02-02T01:37:47.825Z,0
2023-02-02T01:42:47.784Z,0
2023-02-02T01:47:47.845Z,0
2023-02-02T01:52:47.782Z,0
2023-02-02T01:57:47.784Z,0
2023-02-02T02:02:47.819Z,0
2023-02-02T02:07:47.826Z,0
2023-02-02T02:12:47.800Z,0
2023-02-02T02:17:47.796Z,0
2023-02-02T02:22:47.794Z,0
2023-02-02T02:27:47.784Z,0
2023-02-02T02:32:47.792Z,0
2023-02-02T02:37:47.806Z,0
2023-02-02T02:42:47.782Z,0
2023-02-02T02:47:47.827Z,0
2023-02-02T02:52:47.768Z,0
2023-02-02T02:57:47.774Z,0
2023-02-02T03:02:47.762Z,0
2023-02-02T03:07:47.795Z,0
2023-02-02T03:12:47.757Z,0
2023-02-02T03:17:47.755Z,0
2023-02-02T03:22:47.777Z,0
2023-02-02T03:27:47.762Z,0
2023-02-02T03:32:47.762Z,0
2023-02-02T03:37:47.739Z,0
2023-02-02T03:42:47.771Z,0
2023-02-02T03:47:47.781Z,0
2023-02-02T03:52:47.739Z,0
2023-02-02T03:57:47.716Z,0
2023-02-02T04:02:47.742Z,0
2023-02-02T04:07:47.859Z,0
2023-02-02T04:12:47.725Z,0
2023-02-02T04:17:47.707Z,0
2023-02-02T04:22:47.741Z,0
2023-02-02T04:27:47.768Z,0
2023-02-02T04:32:47.722Z,0
2023-02-02T04:37:47.715Z,0
2023-02-02T04:42:47.715Z,0
2023-02-02T04:47:47.763Z,0
2023-02-02T04:52:47.726Z,0
2023-02-02T04:57:47.725Z,0
2023-02-02T05:02:47.710Z,0
2023-02-02T05:07:47.758Z,0
2023-02-02T05:12:47.690Z,0
2023-02-02T05:17:47.669Z,0
2023-02-02T05:22:47.717Z,0
2023-02-02T05:27:47.802Z,0
2023-02-02T05:32:47.778Z,0
2023-02-02T05:37:47.821Z,0
2023-02-02T05:42:47.745Z,0
2023-02-02T05:47:47.701Z,0
2023-02-02T05:52:47.667Z,0
2023-02-02T05:57:47.692Z,0
2023-02-02T06:02:47.731Z,0
2023-02-02T06:07:47.676Z,0
2023-02-02T06:12:47.659Z,0
2023-02-02T06:17:47.641Z,0
2023-02-02T06:22:47.685Z,0
2023-02-02T06:27:47.654Z,0
2023-02-02T06:32:47.663Z,0
2023-02-02T06:37:47.651Z,0
2023-02-02T06:42:47.643Z,0
2023-02-02T06:47:47.707Z,0
2023-02-02T06:52:47.654Z,0
2023-02-02T06:57:47.677Z,0
2023-02-02T07:02:47.741Z,0
2023-02-02T07:07:47.716Z,0
2023-02-02T07:12:47.648Z,0
2023-02-02T07:17:47.616Z,0
2023-02-02T07:22:47.661Z,0
2023-02-02T07:27:47.659Z,0
2023-02-02T07:32:47.655Z,1
2023-02-02T07:37:47.620Z,2
2023-02-02T07:42:47.600Z,3
2023-02-02T07:47:47.662Z,2
2023-02-02T07:52:47.591Z,7
2023-02-02T07:57:47.638Z,9
2023-02-02T08:02:47.669Z,14
2023-02-02T08:07:47.640Z,8
2023-02-02T08:12:47.637Z,18
2023-02-02T08:17:47.622Z,16
2023-02-02T08:22:47.580Z,15
2023-02-02T08:27:47.638Z,18
2023-02-02T08:32:47.593Z,12
2023-02-02T08:37:47.593Z,15
2023-02-02T08:42:47.617Z,24
2023-02-02T08:47:48.391Z,24
2023-02-02T08:52:47.605Z,31
2023-02-02T08:57:47.593Z,35
2023-02-02T09:02:47.565Z,49
2023-02-02T09:07:47.635Z,33
2023-02-02T09:12:47.575Z,34
2023-02-02T09:17:47.570Z,33
2023-02-02T09:22:47.570Z,38
2023-02-02T09:27:47.604Z,50
2023-02-02T09:32:47.531Z,63
2023-02-02T09:37:47.566Z,61
2023-02-02T09:42:47.558Z,67
2023-02-02T09:47:47.581Z,77
2023-02-02T09:52:47.571Z,72
2023-02-02T09:57:47.581Z,64
2023-02-02T10:02:47.561Z,56
2023-02-02T10:07:47.615Z,65
2023-02-02T10:12:47.620Z,55
2023-02-02T10:17:47.548Z,57
2023-02-02T10:22:47.529Z,62
2023-02-02T10:27:47.569Z,63
2023-02-02T10:32:47.547Z,60
2023-02-02T10:37:47.544Z,66
2023-02-02T10:42:47.545Z,70
2023-02-02T10:47:47.596Z,82
2023-02-02T10:52:47.596Z,97
2023-02-02T10:57:47.533Z,98
2023-02-02T11:02:47.527Z,108
2023-02-02T11:07:47.541Z,116
2023-02-02T11:12:47.557Z,104
2023-02-02T11:17:47.510Z,101
2023-02-02T11:22:47.538Z,112
2023-02-02T11:27:47.585Z,108
2023-02-02T11:32:47.524Z,94
2023-02-02T11:37:47.503Z,97
2023-02-02T11:42:47.527Z,98
2023-02-02T11:47:47.581Z,112
2023-02-02T11:52:47.547Z,95
2023-02-02T11:57:47.516Z,109
2023-02-02T12:02:47.516Z,73
2023-02-02T12:07:47.574Z,68
2023-02-02T12:12:47.538Z,78
2023-02-02T12:17:47.535Z,94
2023-02-02T12:22:47.540Z,100
2023-02-02T12:27:47.517Z,109
2023-02-02T12:32:47.517Z,94
2023-02-02T12:37:47.504Z,138
2023-02-02T12:42:47.501Z,136
2023-02-02T12:47:47.532Z,119
2023-02-02T12:52:47.526Z,108
2023-02-02T12:57:47.478Z,97
2023-02-02T13:02:47.493Z,67
2023-02-02T13:07:47.512Z,54
2023-02-02T13:12:47.505Z,69
2023-02-02T13:17:47.503Z,77
2023-02-02T13:22:47.463Z,79
2023-02-02T13:27:47.526Z,64
2023-02-02T13:32:47.459Z,47
2023-02-02T13:37:47.488Z,46
2023-02-02T13:42:47.495Z,48
2023-02-02T13:47:47.515Z,47
2023-02-02T13:52:47.457Z,42
2023-02-02T13:57:47.496Z,40
2023-02-02T14:02:47.548Z,28
2023-02-02T14:07:47.477Z,25
2023-02-02T14:12:47.458Z,30
2023-02-02T14:17:47.479Z,33
2023-02-02T14:22:47.470Z,33
2023-02-02T14:27:47.505Z,27
2023-02-02T14:32:47.439Z,24
2023-02-02T14:37:47.447Z,20
2023-02-02T14:42:47.472Z,23
2023-02-02T14:47:47.466Z,18
2023-02-02T14:52:47.452Z,14
2023-02-02T14:57:47.463Z,11
2023-02-02T15:02:47.447Z,13
2023-02-02T15:07:47.487Z,15
2023-02-02T15:12:47.555Z,13
2023-02-02T15:17:47.430Z,13
2023-02-02T15:22:47.462Z,10
2023-02-02T15:27:56.141Z,6
2023-02-02T15:32:47.435Z,5
2023-02-02T15:37:47.418Z,5
2023-02-02T15:42:47.404Z,12
2023-02-02T15:47:47.472Z,11
2023-02-02T15:52:47.439Z,7
2023-02-02T15:57:47.437Z,3
2023-02-02T16:02:47.392Z,0
2023-02-02T16:07:56.304Z,0
2023-02-02T16:12:47.401Z,0
2023-02-02T16:17:47.408Z,0
2023-02-02T16:22:47.416Z,0
2023-02-02T16:27:47.441Z,0
2023-02-02T16:32:47.389Z,0
2023-02-02T16:37:47.424Z,0
2023-02-02T16:42:47.392Z,0
2023-02-02T16:47:47.430Z,0
2023-02-02T16:52:47.401Z,0
2023-02-02T16:57:47.431Z,0
2023-02-02T17:02:47.450Z,0
2023-02-02T17:07:47.417Z,0
2023-02-02T17:12:47.404Z,0
2023-02-02T17:17:47.373Z,0
2023-02-02T17:22:47.369Z,0
2023-02-02T17:27:47.433Z,0
2023-02-02T17:32:47.401Z,0
2023-02-02T17:37:47.364Z,0
2023-02-02T17:42:47.411Z,0
2023-02-02T17:47:47.389Z,0
2023-02-02T17:52:47.384Z,0
2023-02-02T17:57:47.383Z,0
2023-02-02T18:02:47.403Z,0
2023-02-02T18:07:47.425Z,0
2023-02-02T18:12:47.386Z,0
2023-02-02T18:17:47.368Z,0
2023-02-02T18:22:47.355Z,0
2023-02-02T18:27:47.375Z,0
2023-02-02T18:32:47.379Z,0
2023-02-02T18:37:47.352Z,0
2023-02-02T18:42:47.359Z,0
2023-02-02T18:47:47.374Z,0
2023-02-02T18:52:47.343Z,0
2023-02-02T18:57:47.327Z,0
2023-02-02T19:02:47.347Z,0
2023-02-02T19:07:47.355Z,0
2023-02-02T19:12:47.338Z,0
2023-02-02T19:17:47.307Z,0
2023-02-02T19:22:47.336Z,0
2023-02-02T19:27:47.352Z,0
2023-02-02T19:32:47.360Z,0
2023-02-02T19:37:47.350Z,0
2023-02-02T19:42:47.332Z,0
2023-02-02T19:47:47.345Z,0
2023-02-02T19:52:47.345Z,0
2023-02-02T19:57:47.317Z,0
2023-02-02T20:02:47.332Z,0
2023-02-02T20:07:47.349Z,0
2023-02-02T20:12:47.297Z,0
2023-02-02T20:17:47.285Z,0
2023-02-02T20:22:47.336Z,0
2023-02-02T20:27:47.341Z,0
2023-02-02T20:32:47.315Z,0
2023-02-02T20:37:47.364Z,0
2023-02-02T20:42:47.287Z,0
2023-02-02T20:47:47.298Z,0
2023-02-02T20:52:47.285Z,0
2023-02-02T20:57:47.288Z,0
2023-02-02T21:02:47.317Z,0
2023-02-02T21:07:47.304Z,0
2023-02-02T21:12:50.406Z,0
2023-02-02T21:17:47.252Z,0
2023-02-02T21:22:47.285Z,0
2023-02-02T21:27:47.299Z,0
2023-02-02T21:32:47.286Z,0
2023-02-02T21:37:47.269Z,0
2023-02-02T21:42:47.272Z,0
2023-02-02T21:47:47.274Z,0
2023-02-02T21:52:47.251Z,0
2023-02-02T21:57:47.259Z,0
2023-02-02T22:02:47.302Z,0
2023-02-02T22:07:47.287Z,0
2023-02-02T22:12:47.232Z,0
2023-02-02T22:17:47.254Z,0
2023-02-02T22:22:47.228Z,0
2023-02-02T22:27:47.345Z,0
2023-02-02T22:32:47.255Z,0
2023-02-02T22:37:47.237Z,0
2023-02-02T22:42:47.240Z,0
2023-02-02T22:47:47.273Z,0
2023-02-02T22:52:47.243Z,0
2023-02-02T22:57:47.224Z,0
2023-02-02T23:02:47.250Z,0
2023-02-02T23:07:47.251Z,0
2023-02-02T23:12:47.235Z,0
2023-02-02T23:17:47.222Z,0
2023-02-02T23:22:47.216Z,0
2023-02-02T23:27:47.351Z,0
2023-02-02T23:32:47.223Z,0
2023-02-02T23:37:47.190Z,0
2023-02-02T23:42:47.175Z,0
2023-02-02T23:47:47.205Z,0
2023-02-02T23:52:47.235Z,0
2023-02-02T23:57:47.205Z,0
